createdAt,value
2023-01-22T00:00:58.555Z,0.68
2023-01-22T00:03:25.306Z,0.70
2023-01-22T00:05:52.416Z,0.72
2023-01-22T00:08:19.171Z,0.72
2023-01-22T00:10:49.927Z,0.71
2023-01-22T00:13:16.644Z,0.68
2023-01-22T00:15:43.387Z,0.67
2023-01-22T00:18:11.599Z,0.65
2023-01-22T00:20:40.820Z,0.64
2023-01-22T00:23:08.208Z,0.62
2023-01-22T00:25:34.994Z,0.60
2023-01-22T00:28:01.680Z,0.60
2023-01-22T00:30:28.266Z,0.59
2023-01-22T00:32:55.018Z,0.59
2023-01-22T00:35:23.135Z,0.57
2023-01-22T00:37:49.855Z,0.54
2023-01-22T00:40:17.587Z,0.54
2023-01-22T00:42:44.431Z,0.55
2023-01-22T00:45:13.387Z,0.56
2023-01-22T00:47:40.572Z,0.53
2023-01-22T00:50:08.719Z,0.51
2023-01-22T00:52:37.787Z,0.51
2023-01-22T00:55:05.194Z,0.50
2023-01-22T00:57:32.019Z,0.45
2023-01-22T00:59:59.280Z,0.44
2023-01-22T01:02:28.968Z,0.43
2023-01-22T01:04:56.866Z,0.41
2023-01-22T01:07:23.906Z,0.41
2023-01-22T01:09:52.088Z,0.40
2023-01-22T01:12:20.521Z,0.42
2023-01-22T01:14:47.355Z,0.40
2023-01-22T01:17:13.969Z,0.40
2023-01-22T01:19:40.575Z,0.43
2023-01-22T01:22:08.163Z,0.48
2023-01-22T01:24:36.434Z,0.52
2023-01-22T01:27:04.456Z,0.53
2023-01-22T01:29:31.207Z,0.53
2023-01-22T01:31:58.045Z,0.54
2023-01-22T01:34:24.862Z,0.57
2023-01-22T01:36:51.534Z,0.58
2023-01-22T01:39:18.539Z,0.60
2023-01-22T01:41:46.730Z,0.61
2023-01-22T01:44:16.951Z,0.58
2023-01-22T01:46:48.385Z,0.55
2023-01-22T01:49:19.962Z,0.55
2023-01-22T01:51:47.983Z,0.56
2023-01-22T01:54:15.537Z,0.54
2023-01-22T01:56:45.545Z,0.54
2023-01-22T01:59:17.659Z,0.54
2023-01-22T02:01:47.194Z,0.56
2023-01-22T02:04:14.525Z,0.58
2023-01-22T02:06:41.240Z,0.60
2023-01-22T02:09:08.203Z,0.59
2023-01-22T02:11:35.243Z,0.58
2023-01-22T02:14:05.544Z,0.60
2023-01-22T02:16:33.783Z,0.59
2023-01-22T02:19:00.447Z,0.59
2023-01-22T02:21:35.496Z,0.58
2023-01-22T02:24:02.898Z,0.58
2023-01-22T02:26:29.916Z,0.59
2023-01-22T02:28:56.812Z,0.60
2023-01-22T02:31:27.026Z,0.63
2023-01-22T02:33:54.606Z,0.63
2023-01-22T02:36:22.929Z,0.62
2023-01-22T02:38:52.807Z,0.64
2023-01-22T02:41:19.789Z,0.64
2023-01-22T02:43:46.479Z,0.64
2023-01-22T02:46:13.299Z,0.65
2023-01-22T02:48:39.980Z,0.64
2023-01-22T02:51:06.956Z,0.65
2023-01-22T02:53:33.945Z,0.67
2023-01-22T02:56:05.541Z,0.67
2023-01-22T02:58:32.316Z,0.63
2023-01-22T03:01:08.200Z,0.61
2023-01-22T03:03:34.998Z,0.61
2023-01-22T03:06:01.615Z,0.61
2023-01-22T03:08:28.199Z,0.61
2023-01-22T03:10:58.179Z,0.58
2023-01-22T03:13:46.021Z,0.58
2023-01-22T03:16:31.344Z,0.56
2023-01-22T03:19:17.067Z,0.56
2023-01-22T03:21:43.999Z,0.56
2023-01-22T03:24:10.682Z,0.57
2023-01-22T03:26:37.655Z,0.58
2023-01-22T03:29:05.676Z,0.61
2023-01-22T03:31:32.447Z,0.64
2023-01-22T03:33:59.145Z,0.64
2023-01-22T03:36:26.424Z,0.59
2023-01-22T03:38:57.253Z,0.55
2023-01-22T03:41:24.890Z,0.50
2023-01-22T03:43:51.814Z,0.49
2023-01-22T03:46:22.794Z,0.47
2023-01-22T03:48:53.955Z,0.46
2023-01-22T03:51:21.115Z,0.45
2023-01-22T03:53:55.004Z,0.43
2023-01-22T03:56:23.459Z,0.42
2023-01-22T03:58:51.356Z,0.42
2023-01-22T04:01:22.695Z,0.39
2023-01-22T04:03:51.001Z,0.38
2023-01-22T04:06:18.910Z,0.36
2023-01-22T04:08:49.339Z,0.34
2023-01-22T04:11:16.177Z,0.33
2023-01-22T04:13:44.378Z,0.33
2023-01-22T04:16:12.538Z,0.33
2023-01-22T04:19:00.774Z,0.32
2023-01-22T04:21:42.353Z,0.32
2023-01-22T04:24:11.176Z,0.32
2023-01-22T04:26:38.187Z,0.32
2023-01-22T04:29:04.906Z,0.32
2023-01-22T04:31:31.664Z,0.33
2023-01-22T04:34:28.732Z,0.33
2023-01-22T04:37:02.461Z,0.33
2023-01-22T04:39:32.002Z,0.33
2023-01-22T04:41:59.186Z,0.32
2023-01-22T04:44:26.165Z,0.31
2023-01-22T04:46:53.580Z,0.33
2023-01-22T04:49:20.232Z,0.33
2023-01-22T04:51:49.919Z,0.32
2023-01-22T04:54:17.406Z,0.32
2023-01-22T04:56:44.634Z,0.32
2023-01-22T04:59:13.274Z,0.31
2023-01-22T05:01:40.860Z,0.32
2023-01-22T05:04:08.095Z,0.29
2023-01-22T05:06:34.917Z,0.27
2023-01-22T05:09:03.760Z,0.27
2023-01-22T05:11:39.168Z,0.26
2023-01-22T05:14:06.342Z,0.24
2023-01-22T05:16:33.074Z,0.20
2023-01-22T05:18:59.734Z,0.17
2023-01-22T05:21:26.371Z,0.13
2023-01-22T05:23:53.064Z,0.14
2023-01-22T05:26:21.256Z,0.14
2023-01-22T05:29:07.617Z,0.13
2023-01-22T05:31:53.486Z,0.11
2023-01-22T05:34:42.766Z,0.05
2023-01-22T05:37:11.314Z,0.02
2023-01-22T05:39:38.069Z,0.00
2023-01-22T05:42:10.946Z,-0.06
2023-01-22T05:44:38.639Z,-0.11
2023-01-22T05:47:05.384Z,-0.13
2023-01-22T05:50:01.556Z,-0.21
2023-01-22T05:52:28.264Z,-0.27
2023-01-22T05:54:55.112Z,-0.33
2023-01-22T05:57:23.926Z,-0.38
2023-01-22T05:59:50.586Z,-0.43
2023-01-22T06:02:17.295Z,-0.45
2023-01-22T06:04:45.022Z,-0.45
2023-01-22T06:07:22.568Z,-0.44
2023-01-22T06:09:49.235Z,-0.47
2023-01-22T06:12:18.409Z,-0.50
2023-01-22T06:14:47.508Z,-0.51
2023-01-22T06:17:14.539Z,-0.51
2023-01-22T06:19:53.728Z,-0.52
2023-01-22T06:22:20.437Z,-0.51
2023-01-22T06:24:54.150Z,-0.52
2023-01-22T06:27:23.279Z,-0.51
2023-01-22T06:29:55.837Z,-0.52
2023-01-22T06:32:22.523Z,-0.58
2023-01-22T06:34:50.999Z,-0.65
2023-01-22T06:37:18.311Z,-0.70
2023-01-22T06:39:45.252Z,-0.73
2023-01-22T06:42:25.651Z,-0.73
2023-01-22T06:44:52.308Z,-0.78
2023-01-22T06:47:22.529Z,-0.85
2023-01-22T06:49:49.300Z,-0.89
2023-01-22T06:52:15.976Z,-0.91
2023-01-22T06:54:42.610Z,-0.91
2023-01-22T06:57:09.846Z,-0.95
2023-01-22T06:59:38.294Z,-0.98
2023-01-22T07:02:05.087Z,-0.99
2023-01-22T07:04:33.164Z,-1.04
2023-01-22T07:06:59.764Z,-1.05
2023-01-22T07:09:26.450Z,-1.05
2023-01-22T07:11:53.132Z,-1.11
2023-01-22T07:14:35.711Z,-1.20
2023-01-22T07:17:03.311Z,-1.29
2023-01-22T07:19:29.976Z,-1.39
2023-01-22T07:21:57.922Z,-1.45
2023-01-22T07:24:24.562Z,-1.53
2023-01-22T07:26:51.151Z,-1.60
2023-01-22T07:29:17.917Z,-1.65
2023-01-22T07:31:48.028Z,-1.66
2023-01-22T07:34:16.286Z,-1.67
2023-01-22T07:36:42.988Z,-1.71
2023-01-22T07:39:10.947Z,-1.78
2023-01-22T07:41:37.618Z,-1.88
2023-01-22T07:44:10.837Z,-1.96
2023-01-22T07:46:39.002Z,-1.96
2023-01-22T07:49:05.758Z,-1.95
2023-01-22T07:51:32.650Z,-1.94
2023-01-22T07:53:59.514Z,-2.01
2023-01-22T07:56:27.516Z,-2.04
2023-01-22T07:58:54.126Z,-2.02
2023-01-22T08:01:20.939Z,-1.95
2023-01-22T08:03:47.623Z,-1.93
2023-01-22T08:06:17.725Z,-1.91
2023-01-22T08:08:44.269Z,-1.88
2023-01-22T08:11:10.911Z,-1.92
2023-01-22T08:13:38.942Z,-1.91
2023-01-22T08:16:06.498Z,-1.87
2023-01-22T08:18:33.166Z,-1.83
2023-01-22T08:21:01.175Z,-1.78
2023-01-22T08:23:28.517Z,-1.71
2023-01-22T08:25:58.398Z,-1.61
2023-01-22T08:28:25.046Z,-1.49
2023-01-22T08:30:57.510Z,-1.36
2023-01-22T08:33:24.234Z,-1.28
2023-01-22T08:35:51.325Z,-1.18
2023-01-22T08:38:17.968Z,-1.08
2023-01-22T08:40:48.747Z,-0.95
2023-01-22T08:43:15.369Z,-0.80
2023-01-22T08:45:42.183Z,-0.66
2023-01-22T08:48:10.233Z,-0.54
2023-01-22T08:50:36.886Z,-0.46
2023-01-22T08:53:03.708Z,-0.41
2023-01-22T08:55:30.402Z,-0.30
2023-01-22T08:57:57.392Z,-0.22
2023-01-22T09:00:25.138Z,-0.13
2023-01-22T09:02:51.760Z,-0.01
2023-01-22T09:05:19.710Z,0.14
2023-01-22T09:07:46.306Z,0.29
2023-01-22T09:10:13.112Z,0.41
2023-01-22T09:12:40.179Z,0.55
2023-01-22T09:15:07.893Z,0.64
2023-01-22T09:17:34.589Z,0.77
2023-01-22T09:20:01.386Z,0.90
2023-01-22T09:22:29.359Z,1.02
2023-01-22T09:24:56.096Z,1.12
2023-01-22T09:27:22.734Z,1.26
2023-01-22T09:29:49.430Z,1.44
2023-01-22T09:32:16.026Z,1.64
2023-01-22T09:34:42.617Z,1.79
2023-01-22T09:37:10.777Z,1.90
2023-01-22T09:39:38.805Z,1.92
2023-01-22T09:42:09.679Z,1.98
2023-01-22T09:44:40.680Z,2.08
2023-01-22T09:47:11.706Z,2.10
2023-01-22T09:49:45.830Z,2.11
2023-01-22T09:52:12.454Z,2.10
2023-01-22T09:54:40.529Z,2.11
2023-01-22T09:57:14.866Z,2.09
2023-01-22T09:59:49.701Z,2.04
2023-01-22T10:02:26.830Z,2.02
2023-01-22T10:04:57.966Z,2.06
2023-01-22T10:07:30.593Z,2.14
2023-01-22T10:10:02.132Z,2.26
2023-01-22T10:12:29.977Z,2.40
2023-01-22T10:14:57.180Z,2.54
2023-01-22T10:17:29.792Z,2.63
2023-01-22T10:20:00.072Z,2.69
2023-01-22T10:22:28.178Z,2.76
2023-01-22T10:24:55.156Z,2.81
2023-01-22T10:27:31.802Z,2.85
2023-01-22T10:30:01.122Z,2.88
2023-01-22T10:32:29.383Z,2.94
2023-01-22T10:35:01.584Z,2.94
2023-01-22T10:37:29.364Z,2.92
2023-01-22T10:39:58.731Z,3.02
2023-01-22T10:42:29.478Z,3.15
2023-01-22T10:44:57.889Z,3.21
2023-01-22T10:47:27.482Z,3.28
2023-01-22T10:50:05.876Z,3.34
2023-01-22T10:52:38.256Z,3.25
2023-01-22T10:55:06.166Z,3.11
2023-01-22T10:57:36.251Z,3.03
2023-01-22T11:00:20.671Z,3.01
2023-01-22T11:02:49.802Z,3.12
2023-01-22T11:05:18.612Z,3.28
2023-01-22T11:07:46.602Z,3.62
2023-01-22T11:10:20.427Z,3.87
2023-01-22T11:12:51.396Z,3.99
2023-01-22T11:15:24.371Z,4.05
2023-01-22T11:17:53.037Z,4.00
2023-01-22T11:20:26.523Z,3.87
2023-01-22T11:23:03.436Z,3.95
2023-01-22T11:25:38.697Z,4.31
2023-01-22T11:28:17.961Z,4.59
2023-01-22T11:31:06.268Z,4.89
2023-01-22T11:33:54.059Z,5.23
2023-01-22T11:36:27.408Z,5.40
2023-01-22T11:38:59.128Z,5.75
2023-01-22T11:41:40.403Z,6.34
2023-01-22T11:44:25.368Z,6.92
2023-01-22T11:47:02.862Z,7.45
2023-01-22T11:49:39.503Z,7.86
2023-01-22T11:52:20.894Z,8.27
2023-01-22T11:55:04.709Z,8.67
2023-01-22T11:57:37.009Z,9.06
2023-01-22T12:00:25.668Z,9.36
2023-01-22T12:03:14.677Z,9.57
2023-01-22T12:05:49.765Z,9.21
2023-01-22T12:08:32.312Z,8.57
2023-01-22T12:11:13.831Z,7.93
2023-01-22T12:14:10.422Z,7.35
2023-01-22T12:16:45.330Z,6.81
2023-01-22T12:19:29.953Z,6.37
2023-01-22T12:22:04.325Z,5.94
2023-01-22T12:24:37.243Z,5.61
2023-01-22T12:27:07.136Z,5.29
2023-01-22T12:29:40.365Z,5.09
2023-01-22T12:32:12.060Z,4.92
2023-01-22T12:34:46.924Z,4.75
2023-01-22T12:37:17.625Z,4.64
2023-01-22T12:39:55.478Z,4.59
2023-01-22T12:42:27.663Z,4.53
2023-01-22T12:45:03.426Z,4.50
2023-01-22T12:47:38.692Z,4.44
2023-01-22T12:50:17.216Z,4.30
2023-01-22T12:52:44.107Z,4.08
2023-01-22T12:55:30.446Z,3.90
2023-01-22T12:57:57.774Z,3.78
2023-01-22T13:00:30.567Z,3.70
2023-01-22T13:02:58.642Z,3.59
2023-01-22T13:05:41.370Z,3.47
2023-01-22T13:08:22.391Z,3.32
2023-01-22T13:10:54.132Z,3.17
2023-01-22T13:13:25.692Z,3.09
2023-01-22T13:15:54.158Z,3.07
2023-01-22T13:18:25.723Z,3.06
2023-01-22T13:20:57.055Z,3.05
2023-01-22T13:23:24.546Z,3.01
2023-01-22T13:25:54.664Z,3.08
2023-01-22T13:28:22.479Z,3.05
2023-01-22T13:30:57.041Z,2.96
2023-01-22T13:33:25.203Z,2.85
2023-01-22T13:35:52.435Z,2.79
2023-01-22T13:38:21.452Z,2.70
2023-01-22T13:40:51.571Z,2.61
2023-01-22T13:43:21.174Z,2.50
2023-01-22T13:45:48.786Z,2.45
2023-01-22T13:48:18.261Z,2.43
2023-01-22T13:50:53.612Z,2.38
2023-01-22T13:53:30.678Z,2.27
2023-01-22T13:55:58.541Z,2.22
2023-01-22T13:58:47.252Z,2.15
2023-01-22T14:01:27.328Z,2.10
2023-01-22T14:03:59.406Z,2.12
2023-01-22T14:06:28.383Z,2.04
2023-01-22T14:08:56.985Z,1.90
2023-01-22T14:11:23.906Z,1.83
2023-01-22T14:13:52.271Z,1.79
2023-01-22T14:16:19.599Z,1.76
2023-01-22T14:18:47.235Z,1.70
2023-01-22T14:21:14.128Z,1.64
2023-01-22T14:23:42.882Z,1.58
2023-01-22T14:26:09.906Z,1.55
2023-01-22T14:28:37.112Z,1.51
2023-01-22T14:31:05.396Z,1.50
2023-01-22T14:33:34.845Z,1.56
2023-01-22T14:36:01.931Z,1.56
2023-01-22T14:38:28.862Z,1.55
2023-01-22T14:40:57.093Z,1.58
2023-01-22T14:43:23.925Z,1.62
2023-01-22T14:45:51.693Z,1.64
2023-01-22T14:48:20.517Z,1.66
2023-01-22T14:50:48.378Z,1.68
2023-01-22T14:53:15.965Z,1.67
2023-01-22T14:55:43.400Z,1.68
2023-01-22T14:58:11.784Z,1.66
2023-01-22T15:00:39.203Z,1.64
2023-01-22T15:03:06.244Z,1.66
2023-01-22T15:05:35.499Z,1.64
2023-01-22T15:08:02.764Z,1.64
2023-01-22T15:10:29.533Z,1.64
2023-01-22T15:12:56.188Z,1.58
2023-01-22T15:15:26.882Z,1.53
2023-01-22T15:17:54.147Z,1.52
2023-01-22T15:20:21.726Z,1.51
2023-01-22T15:22:49.681Z,1.53
2023-01-22T15:25:16.648Z,1.53
2023-01-22T15:27:44.433Z,1.50
2023-01-22T15:30:12.724Z,1.49
2023-01-22T15:32:41.032Z,1.52
2023-01-22T15:35:08.427Z,1.52
2023-01-22T15:37:35.094Z,1.44
2023-01-22T15:40:02.399Z,1.40
2023-01-22T15:42:29.144Z,1.40
2023-01-22T15:44:55.816Z,1.40
2023-01-22T15:47:22.682Z,1.42
2023-01-22T15:49:50.740Z,1.39
2023-01-22T15:52:17.457Z,1.30
2023-01-22T15:54:44.311Z,1.28
2023-01-22T15:57:10.989Z,1.30
2023-01-22T15:59:38.898Z,1.31
2023-01-22T16:02:05.875Z,1.36
2023-01-22T16:04:32.599Z,1.37
2023-01-22T16:07:00.790Z,1.37
2023-01-22T16:09:27.389Z,1.38
2023-01-22T16:11:54.195Z,1.38
2023-01-22T16:14:20.927Z,1.40
2023-01-22T16:16:47.747Z,1.42
2023-01-22T16:19:14.450Z,1.42
2023-01-22T16:21:41.335Z,1.43
2023-01-22T16:24:09.935Z,1.45
2023-01-22T16:26:36.655Z,1.46
2023-01-22T16:29:05.782Z,1.48
2023-01-22T16:31:34.452Z,1.50
2023-01-22T16:34:07.868Z,1.51
2023-01-22T16:36:34.611Z,1.51
2023-01-22T16:39:01.416Z,1.48
2023-01-22T16:41:31.222Z,1.48
2023-01-22T16:44:01.796Z,1.47
2023-01-22T16:46:31.072Z,1.47
2023-01-22T16:48:59.623Z,1.47
2023-01-22T16:51:28.325Z,1.47
2023-01-22T16:53:55.535Z,1.44
2023-01-22T16:56:22.295Z,1.41
2023-01-22T16:58:50.689Z,1.39
2023-01-22T17:01:17.710Z,1.39
2023-01-22T17:03:45.389Z,1.39
2023-01-22T17:06:21.254Z,1.38
2023-01-22T17:08:48.305Z,1.38
2023-01-22T17:11:15.824Z,1.39
2023-01-22T17:13:42.670Z,1.37
2023-01-22T17:16:11.543Z,1.38
2023-01-22T17:18:38.331Z,1.38
2023-01-22T17:21:06.847Z,1.40
2023-01-22T17:23:33.984Z,1.40
2023-01-22T17:26:05.641Z,1.42
2023-01-22T17:28:32.774Z,1.42
2023-01-22T17:30:59.585Z,1.45
2023-01-22T17:33:29.054Z,1.47
2023-01-22T17:35:58.318Z,1.47
2023-01-22T17:38:25.041Z,1.45
2023-01-22T17:40:51.688Z,1.45
2023-01-22T17:43:18.434Z,1.45
2023-01-22T17:45:45.099Z,1.46
2023-01-22T17:48:11.872Z,1.45
2023-01-22T17:50:40.011Z,1.44
2023-01-22T17:53:06.715Z,1.42
2023-01-22T17:55:33.431Z,1.41
2023-01-22T17:58:00.245Z,1.38
2023-01-22T18:00:26.930Z,1.34
2023-01-22T18:02:53.631Z,1.30
2023-01-22T18:05:21.298Z,1.30
2023-01-22T18:07:49.353Z,1.30
2023-01-22T18:10:16.853Z,1.28
2023-01-22T18:12:44.554Z,1.25
2023-01-22T18:15:11.828Z,1.25
2023-01-22T18:17:38.459Z,1.25
2023-01-22T18:20:06.851Z,1.26
2023-01-22T18:22:33.615Z,1.23
2023-01-22T18:25:01.813Z,1.20
2023-01-22T18:27:28.660Z,1.18
2023-01-22T18:29:55.373Z,1.16
2023-01-22T18:32:22.534Z,1.16
2023-01-22T18:34:49.198Z,1.13
2023-01-22T18:37:15.910Z,1.11
2023-01-22T18:39:42.706Z,1.07
2023-01-22T18:42:10.628Z,1.03
2023-01-22T18:44:38.675Z,0.97
2023-01-22T18:47:11.135Z,0.93
2023-01-22T18:49:37.905Z,0.89
2023-01-22T18:52:04.648Z,0.83
2023-01-22T18:54:31.581Z,0.83
2023-01-22T18:56:58.564Z,0.83
2023-01-22T18:59:26.639Z,0.81
2023-01-22T19:01:53.661Z,0.78
2023-01-22T19:04:21.841Z,0.73
2023-01-22T19:06:53.667Z,0.70
2023-01-22T19:09:21.021Z,0.65
2023-01-22T19:11:49.757Z,0.64
2023-01-22T19:14:18.216Z,0.61
2023-01-22T19:16:49.057Z,0.61
2023-01-22T19:19:16.773Z,0.59
2023-01-22T19:21:46.953Z,0.56
2023-01-22T19:24:15.758Z,0.50
2023-01-22T19:26:46.000Z,0.45
2023-01-22T19:29:15.271Z,0.42
2023-01-22T19:31:45.866Z,0.43
2023-01-22T19:34:18.588Z,0.48
2023-01-22T19:36:45.352Z,0.50
2023-01-22T19:39:13.489Z,0.52
2023-01-22T19:41:40.525Z,0.54
2023-01-22T19:44:09.161Z,0.54
2023-01-22T19:46:37.776Z,0.52
2023-01-22T19:49:05.129Z,0.52
2023-01-22T19:51:33.912Z,0.50
2023-01-22T19:54:01.834Z,0.51
2023-01-22T19:56:30.105Z,0.54
2023-01-22T19:58:59.944Z,0.57
2023-01-22T20:01:26.869Z,0.55
2023-01-22T20:03:54.934Z,0.52
2023-01-22T20:06:23.211Z,0.52
2023-01-22T20:08:52.063Z,0.52
2023-01-22T20:11:18.867Z,0.53
2023-01-22T20:13:47.684Z,0.56
2023-01-22T20:16:20.523Z,0.56
2023-01-22T20:18:47.590Z,0.55
2023-01-22T20:21:16.467Z,0.55
2023-01-22T20:23:44.234Z,0.49
2023-01-22T20:26:12.833Z,0.42
2023-01-22T20:28:39.800Z,0.39
2023-01-22T20:31:11.392Z,0.33
2023-01-22T20:33:38.695Z,0.27
2023-01-22T20:36:07.901Z,0.22
2023-01-22T20:38:35.363Z,0.16
2023-01-22T20:41:04.913Z,0.10
2023-01-22T20:43:32.919Z,0.06
2023-01-22T20:46:01.803Z,0.02
2023-01-22T20:48:30.591Z,-0.02
2023-01-22T20:50:57.528Z,-0.10
2023-01-22T20:53:25.095Z,-0.23
2023-01-22T20:55:59.372Z,-0.37
2023-01-22T20:58:26.394Z,-0.41
2023-01-22T21:00:56.444Z,-0.43
2023-01-22T21:03:24.161Z,-0.44
2023-01-22T21:05:51.130Z,-0.46
2023-01-22T21:08:18.212Z,-0.49
2023-01-22T21:10:55.625Z,-0.56
2023-01-22T21:13:23.610Z,-0.61
2023-01-22T21:15:50.990Z,-0.66
2023-01-22T21:18:19.558Z,-0.77
2023-01-22T21:20:46.765Z,-0.90
2023-01-22T21:23:13.739Z,-1.01
2023-01-22T21:25:40.591Z,-1.08
2023-01-22T21:28:07.357Z,-1.12
2023-01-22T21:30:35.387Z,-1.15
2023-01-22T21:33:02.204Z,-1.18
2023-01-22T21:35:30.336Z,-1.23
2023-01-22T21:37:57.076Z,-1.28
2023-01-22T21:40:24.042Z,-1.33
2023-01-22T21:43:09.945Z,-1.33
2023-01-22T21:45:59.729Z,-1.34
2023-01-22T21:48:28.845Z,-1.31
2023-01-22T21:50:56.940Z,-1.28
2023-01-22T21:53:23.747Z,-1.31
2023-01-22T21:55:51.759Z,-1.35
2023-01-22T21:58:18.675Z,-1.36
2023-01-22T22:00:45.351Z,-1.41
2023-01-22T22:03:12.044Z,-1.50
2023-01-22T22:05:40.248Z,-1.60
2023-01-22T22:08:08.616Z,-1.72
2023-01-22T22:10:35.281Z,-1.84
2023-01-22T22:13:02.046Z,-1.90
2023-01-22T22:15:28.828Z,-1.94
2023-01-22T22:17:55.507Z,-2.02
2023-01-22T22:20:22.266Z,-2.08
2023-01-22T22:22:48.940Z,-2.18
2023-01-22T22:25:17.494Z,-2.28
2023-01-22T22:27:44.242Z,-2.31
2023-01-22T22:30:12.140Z,-2.39
2023-01-22T22:32:38.787Z,-2.47
2023-01-22T22:35:06.375Z,-2.50
2023-01-22T22:37:33.026Z,-2.58
2023-01-22T22:39:59.734Z,-2.71
2023-01-22T22:42:27.764Z,-2.79
2023-01-22T22:44:54.430Z,-2.80
2023-01-22T22:47:21.418Z,-2.80
2023-01-22T22:49:48.706Z,-2.80
2023-01-22T22:52:15.383Z,-2.80
2023-01-22T22:54:42.899Z,-2.76
2023-01-22T22:57:10.048Z,-2.78
2023-01-22T22:59:38.208Z,-2.74
2023-01-22T23:02:06.078Z,-2.71
2023-01-22T23:04:33.001Z,-2.67
2023-01-22T23:06:59.637Z,-2.61
2023-01-22T23:09:26.337Z,-2.52
2023-01-22T23:11:56.152Z,-2.46
2023-01-22T23:14:23.292Z,-2.43
2023-01-22T23:16:51.508Z,-2.41
2023-01-22T23:19:20.319Z,-2.36
2023-01-22T23:21:50.141Z,-2.32
2023-01-22T23:24:16.844Z,-2.27
2023-01-22T23:26:44.647Z,-2.25
2023-01-22T23:29:14.298Z,-2.21
2023-01-22T23:31:41.449Z,-2.18
2023-01-22T23:34:12.851Z,-2.20
2023-01-22T23:36:40.864Z,-2.21
2023-01-22T23:39:07.489Z,-2.26
2023-01-22T23:41:34.164Z,-2.36
2023-01-22T23:44:00.899Z,-2.41
2023-01-22T23:46:29.020Z,-2.49
2023-01-22T23:48:57.244Z,-2.54
2023-01-22T23:51:26.227Z,-2.62
2023-01-22T23:53:53.392Z,-2.73
2023-01-22T23:56:21.403Z,-2.83
2023-01-22T23:58:48.049Z,-2.93
